Tiempo atmosférico en la estación meteorológica de Valencia Aeropuerto, València/Valencia (69 m.)



Fecha
DESCASC
Temp. máxima en grados centígrados (hora)
DESCASC
Temp. mínima en grados centígrados (hora)
DESCASC
Temp. media en grados centígrados
DESCASC
Racha de viento máxima en m/sg (hora)
DESCASC
Velocidad máxima media en intervalos de 10 minutos(hora)
DESCASC
Precipitaciones diarias en mm
DESCASC
Precipitaciones de 00:00 a 06:00 en mm
DESCASC
Precipitaciones de 06:00 a 12:00 en mm
DESCASC
Precipitaciones de 12:00 a 18:00 en mm
DESCASC
Precipitaciones de 18:00 a 24:00 en mm
DESCASC
05-12-2019 13.3 (12:50) 11 (01:40) 12.2 11.39 (00:10) 7.78 (00:10) 16.8 5.9 2.6 8.3 0
04-12-2019 14.2 (13:20) 10.4 (22:50) 12.3 16.39 (07:30) 10.83 (02:20) 26.6 4.2 5.8 0.3 16.3
03-12-2019 12.3 (00:20) 8.6 (21:10) 10.5 11.67 (13:10) 7.5 (13:10) 14.6 3.1 0.3 0.1 11.1
02-12-2019 13.3 (06:30) 9.7 (00:00) 11.5 11.39 (13:50) 7.22 (19:10) 15.9 0 10.8 5.1 0
01-12-2019 19.1 (15:30) 11.2 (00:00) 15.2 12.5 (11:20) 9.17 (11:20) 0 0 0 0 0
30-11-2019 23 (15:00) 9.2 (00:00) 16.1 10.28 (14:30) 7.5 (14:30) 0 0 0 0 0
29-11-2019 23 (15:50) 13 (00:00) 18 15.28 (06:10) 11.11 (06:30) 0 0 0 0 0
28-11-2019 19.5 (14:50) 13.5 (08:10) 16.5 16.11 (11:40) 11.39 (11:40) 0 0 0 0 0
27-11-2019 21.5 (13:00) 15.2 (00:00) 18.3 18.06 (15:20) 12.78 (15:30) 0 0 0 0 0
26-11-2019 23.1 (14:30) 11.1 (00:00) 17.1 14.44 (13:30) 10.83 (15:40) 0 0 0 0 0
25-11-2019 22.4 (14:50) 11.3 (06:50) 16.8 15 (04:00) 10.28 (00:10) 0 0 0 0 0
24-11-2019 19.4 (14:50) 9.2 (00:00) 14.3 13.89 (00:20) 10 (06:40) 0 0 0 0 0
23-11-2019 18 (14:30) 11.3 (00:00) 14.7 18.61 (10:30) 13.89 (13:10) 0 0 0 0 0
22-11-2019 16.9 (13:20) 7.9 (00:00) 12.4 12.5 (22:40) 7.5 (22:40) 0.8 0 0 0.8 0
21-11-2019 16.4 (14:00) 7.5 (00:00) 11.9 8.89 (12:20) 6.67 (12:30) 0 0 0 0 0
20-11-2019 17.3 (13:50) 4.7 (07:30) 11 8.33 (14:30) 5.83 (17:00) 0.8 0 0 0 0.8
19-11-2019 18.2 (15:40) 1.6 (00:00) 9.9 7.22 (13:40) 4.72 (04:00) 0 0 0 0 0
18-11-2019 16.8 (12:30) 4.9 (00:00) 10.8 9.72 (11:20) 6.67 (17:00) 0 0 0 0 0
17-11-2019 16.2 (14:10) 4.5 (00:00) 10.4 15.28 (16:00) 10.56 (17:00) 0 0 0 0 0
16-11-2019 17.5 (16:00) 4.3 (00:00) 10.9 8.89 (16:10) 6.94 (22:40) 0 0 0 0 0
15-11-2019 16.7 (14:20) 5.9 (00:00) 11.3 14.44 (00:10) 10.28 (02:00) 0 0 0 0 0
14-11-2019 17 (11:00) 8.7 (00:00) 12.8 20 (12:20) 12.22 (12:30) 0 0 0 0 0
13-11-2019 20.7 (14:50) 9.8 (00:00) 15.3 12.5 (04:00) 9.17 (03:50) 1.2 0.3 0.9 0 0
12-11-2019 20.3 (16:10) 9.4 (00:00) 14.8 17.5 (00:50) 11.67 (00:40) 0 0 0 0 0
11-11-2019 19 (13:20) 6.5 (05:50) 12.8 18.06 (22:30) 13.33 (17:40) 0 0 0 0 0
10-11-2019 18.1 (13:50) 8.7 (00:00) 13.4 16.39 (03:00) 11.39 (03:10) 0 0 0 0 0
09-11-2019 20.1 (14:10) 12 (00:00) 16.1 13.89 (14:20) 10 (15:30) 0 0 0 0 0
08-11-2019 17.8 (15:00) 9.2 (07:10) 13.5 18.61 (00:10) 12.5 (14:10) 0 0 0 0 0
07-11-2019 22.3 (14:50) 10 (00:00) 16.1 17.5 (23:59) 12.22 (23:59) 0 0 0 0 0
06-11-2019 22.9 (16:10) 11.1 (00:00) 17 9.17 (01:20) 6.94 (00:40) 0 0 0 0 0

Gráficas

Temp. máximas Temp. mínimas Temp. medias Precipitaciones Rachas de viento máximas Velocidades máximas media en intervalos de 10 minutos

Datos horarios

Fecha y hora oficial Temperatura (ºC) Velocidad del viento (km/h) Dirección del viento Racha (km/h) Dirección de racha Precipitación (mm) Presión (hPa) Tendencia (hPa) Humedad (%)
2019-12-05 23:00:00 11.2 6 Noroeste 9 Noroeste 0 1014.8 1 98
2019-12-05 22:00:00 11.6 3 Noroeste 13 Norte 0 1014.4 1.3 96
2019-12-05 21:00:00 11.8 3 Norte 8 Norte 0 1013.9 1.6 93
2019-12-05 20:00:00 11.9 7 Este 15 Este 0 1013.8 2.1 93
2019-12-05 19:00:00 12.3 6 Nordeste 15 Norte 0 1013.1 2 91
2019-12-05 18:00:00 12.5 10 Nordeste 18 Nordeste 0.3 1012.3 1.6 91
2019-12-05 17:00:00 12.4 13 Nordeste 24 Norte 0 1011.7 1.3 93
2019-12-05 16:00:00 12.2 14 Norte 26 Nordeste 1.1 1011.1 0.7 96
2019-12-05 15:00:00 12.2 11 Nordeste 24 Nordeste 5.5 1010.7 0.1 97
2019-12-05 14:00:00 12.6 17 Norte 30 Norte 1.4 1010.4 0.1 93
2019-12-05 13:00:00 13.3 19 Norte 32 Norte 0 1010.4 0.9 90
2019-12-05 12:00:00 12.6 10 Norte 21 Norte 0.7 1010.6 2.2 96
2019-12-05 11:00:00 11.7 7 Noroeste 13 Oeste 1.3 1010.3 2.7 98
2019-12-05 10:00:00 11.6 7 Noroeste 15 Noroeste 0.6 1009.5 3.1 95
2019-12-05 09:00:00 11.4 10 Noroeste 22 Noroeste 0 1008.4 2.6 91
2019-12-05 08:00:00 11.3 6 Noroeste 18 Nordeste 0 1007.6 2.2 90
2019-12-05 07:00:00 11.5 13 Nordeste 30 Norte 0 1006.4 1.6 89
2019-12-05 06:00:00 11.6 15 Nordeste 30 Nordeste 0 1005.8 1.7 92
2019-12-05 05:00:00 11.4 8 Nordeste 13 Nordeste 0 1005.4 2 96
2019-12-05 04:00:00 11.4 10 Nordeste 18 Nordeste 0 1004.8 1.9 98
2019-12-05 03:00:00 11.3 11 Nordeste 17 Nordeste 1.2 1004.1 2.6 99
2019-12-05 02:00:00 11.1 13 Este 30 Nordeste 3.8 1003.4 2.8 99
2019-12-05 01:00:00 11.3 16 Este 41 Norte 0.9 1002.9 2.5 99
2019-12-05 00:00:00 11.2 24 Norte 46 Norte 1.7 1001.5 1.2 98
2019-12-04 23:00:00 10.5 25 Norte 42 Norte 4.9 1000.6 0.1 99
2019-12-04 22:00:00 10.7 16 Noroeste 24 Noroeste 2.6 1000.4 0.6 96
2019-12-04 21:00:00 10.7 17 Oeste 24 Oeste 2 1000.3 0.7 97
2019-12-04 20:00:00 10.9 13 Oeste 18 Oeste 3.4 1000.5 1.5 96
2019-12-04 19:00:00 11.1 13 Oeste 22 Noroeste 1.7 999.8 1 93
2019-12-04 18:00:00 11.8 14 Noroeste 28 Norte 0.3 999.6 1 89
2019-12-04 17:00:00 12.8 5 Oeste 8 Sudoeste 0 999 1.2 82
2019-12-04 16:00:00 13 6 Este 18 Norte 0 998.8 0.4 78
2019-12-04 15:00:00 13.5 12 Noroeste 18 Noroeste 0 998.6 0 72
2019-12-04 14:00:00 13.9 12 Oeste 24 Noroeste 0 997.8 -1.3 73
2019-12-04 13:00:00 14.1 12 Noroeste 24 Noroeste 0 998.4 -0.1 72
2019-12-04 12:00:00 12.7 10 Oeste 21 Norte 0 998.6 0.3 81
2019-12-04 11:00:00 11.4 13 Noroeste 32 Noroeste 0 999.1 1 89
2019-12-04 10:00:00 10.8 16 Noroeste 30 Norte 1 998.5 1.2 92
2019-12-04 09:00:00 10.8 19 Norte 37 Nordeste 0.9 998.3 -0.1 94
2019-12-04 08:00:00 11.1 21 Nordeste 59 Nordeste 0.3 998.1 -0.9 95
2019-12-04 07:00:00 11.2 29 Norte 52 Norte 3.6 997.3 -2.4 97
2019-12-04 06:00:00 11.3 30 Norte 54 Norte 2.9 998.4 -2.4 95
2019-12-04 05:00:00 12 31 Norte 54 Norte 0.7 999 -2.7 87
2019-12-04 04:00:00 12.5 32 Norte 58 Norte 0.6 999.7 -3.4 85
2019-12-04 03:00:00 12.6 27 Norte 55 Nordeste 0 1000.8 -3.5 84
2019-12-04 02:00:00 12.7 33 Norte 58 Nordeste 0 1001.7 -3.5 85
2019-12-04 01:00:00 11.9 26 Nordeste 42 Nordeste 0 1003.1 -2.9 89
2019-12-04 00:00:00 10.9 13 Norte 32 Norte 2.9 1004.3 -2.4 96
2019-12-03 23:00:00 9.1 12 Noroeste 24 Noroeste 0.1 1005.2 -1.9 97
2019-12-03 22:00:00 8.6 15 Noroeste 24 Noroeste 2.3 1006 -1.1 97
2019-12-03 21:00:00 8.7 16 Noroeste 22 Noroeste 4.2 1006.7 -1.1 97
2019-12-03 20:00:00 9 14 Noroeste 22 Noroeste 1.6 1007.1 -0.5 93
2019-12-03 19:00:00 10.6 13 Norte 22 Norte 0 1007.1 -0.4 74
2019-12-03 18:00:00 10.3 5 Nordeste 18 Nordeste 0 1007.8 0.1 78
2019-12-03 17:00:00 10.5 9 Nordeste 28 Nordeste 0.1 1007.6 -0.6 76
2019-12-03 16:00:00 11.3 17 Nordeste 32 Nordeste 0 1007.5 -1.5 66
2019-12-03 15:00:00 10.6 13 Norte 26 Nordeste 0 1007.7 -2.1 72
2019-12-03 14:00:00 10.2 15 Norte 42 Este 0 1008.2 -2.1 76
2019-12-03 13:00:00 10.8 20 Nordeste 39 Nordeste 0 1009 -1.2 70
2019-12-03 12:00:00 10.9 10 Nordeste 17 Nordeste 0 1009.8 -0.1 72
2019-12-03 11:00:00 10.7 9 Norte 22 Nordeste 0.1 1010.3 0.7 79
2019-12-03 10:00:00 10.5 5 Nordeste 13 Norte 0.1 1010.2 0.9 79
2019-12-03 09:00:00 10.8 6 Norte 18 Norte 0 1009.9 0.8 79
2019-12-03 08:00:00 10.5 4 Norte 13 Norte 0 1009.6 0.1 89
2019-12-03 07:00:00 10.4 8 Norte 24 Nordeste 0.1 1009.3 -0.5 85
2019-12-03 06:00:00 10.8 14 Nordeste 21 Este 0.2 1009.1 -0.8 84
2019-12-03 05:00:00 10.2 14 Este 21 Este 1 1009.5 -0.5 93
2019-12-03 04:00:00 11 10 Norte 18 Norte 0.8 1009.8 -0.6 93
2019-12-03 03:00:00 11.4 8 Norte 13 Nordeste 1.1 1009.9 -0.8 93
2019-12-03 02:00:00 11.6 8 Noroeste 13 Norte 0 1010 -0.5 87
2019-12-03 01:00:00 12.2 9 Norte 15 Norte 0 1010.4 0 82
2019-12-03 00:00:00 12.1 9 Norte 13 Norte 0 1010.7 0.5 82
2019-12-02 23:00:00 12.4 9 Norte 17 Norte 0 1010.5 1 81
2019-12-02 22:00:00 12.9 11 Norte 24 Norte 0 1010.4 1.8 77
2019-12-02 21:00:00 13.2 15 Nordeste 30 Nordeste 0 1010.2 1.7 72
2019-12-02 20:00:00 13.3 20 Nordeste 37 Nordeste 0 1009.5 1.2 73
2019-12-02 19:00:00 13 23 Nordeste 35 Nordeste 0 1008.6 0.5 77
2019-12-02 18:00:00 12.2 15 Nordeste 32 Nordeste 0.2 1008.5 0.8 85
2019-12-02 17:00:00 11.9 18 Nordeste 33 Nordeste 1 1008.3 0.3 90
2019-12-02 16:00:00 12.3 17 Nordeste 33 Nordeste 0.3 1008.1 0 86
2019-12-02 15:00:00 12.2 21 Nordeste 35 Nordeste 1.5 1007.7 -0.8 86
2019-12-02 14:00:00 12.1 21 Nordeste 41 Nordeste 1.8 1008 -0.3 84
2019-12-02 13:00:00 12.2 22 Nordeste 37 Nordeste 0.3 1008.1 0.2 84
2019-12-02 12:00:00 11.9 19 Norte 33 Norte 1.5 1008.5 1.5 88
2019-12-02 11:00:00 11.2 19 Norte 32 Nordeste 5.8 1008.3 1.8 92
2019-12-02 10:00:00 11.4 12 Norte 26 Norte 3.2 1007.9 2.3 89
2019-12-02 09:00:00 12 18 Norte 30 Norte 0.3 1007 1.8 81
2019-12-02 08:00:00 11.6 11 Noroeste 30 Norte 0 1006.5 1.4 78
2019-12-02 07:00:00 13.1 16 Norte 28 Nordeste 0 1005.6 0.2 62
2019-12-02 06:00:00 12.9 12 Norte 22 Norte 0 1005.2 0.1 56
2019-12-02 05:00:00 10.3 6 Norte 11 Norte 0 1005.1 0 81
2019-12-02 04:00:00 9.9 8 Noroeste 13 Oeste 0 1005.4 -0.2 84
2019-12-02 03:00:00 11 10 Noroeste 15 Noroeste 0 1005.1 -0.5 80
2019-12-02 02:00:00 10.9 10 Noroeste 13 Noroeste 0 1005.1 -0.4 85
2019-12-02 01:00:00 11 10 Noroeste 17 Noroeste 0 1005.6 0.5 85
2019-12-02 00:00:00 11.3 9 Noroeste 13 Noroeste 0 1005.6 0.8 84
2019-12-01 23:00:00 11.6 10 Noroeste 17 Nordeste 0 1005.5 1.3 83
2019-12-01 22:00:00 13.1 13 Nordeste 22 Nordeste 0 1005.1 1.2 78
2019-12-01 21:00:00 13.3 15 Nordeste 28 Nordeste 0 1004.8 1.7 79
2019-12-01 20:00:00 13.5 18 Nordeste 32 Nordeste 0 1004.2 1.4 80
2019-12-01 19:00:00 14.1 18 Nordeste 32 Nordeste 0 1003.9 1.1 80
2019-12-01 18:00:00 15.3 3 Oeste 13 Oeste 0 1003.1 0.2 47
2019-12-01 17:00:00 18 9 Oeste 21 Oeste 0 1002.8 -0.8 38
2019-12-01 16:00:00 18.7 16 Oeste 24 Noroeste 0 1002.8 -1.3 36
2019-12-01 15:00:00 18.8 12 Oeste 39 Noroeste 0 1002.9 -2.1 34
2019-12-01 14:00:00 18.5 23 Oeste 39 Oeste 0 1003.6 -2 34
2019-12-01 13:00:00 17.9 28 Oeste 41 Oeste 0 1004.1 -1.3 38
2019-12-01 12:00:00 17.3 19 Oeste 45 Oeste 0 1005 0.1 41
2019-12-01 11:00:00 17 20 Oeste 32 Oeste 0 1005.6 0.7 51
2019-12-01 10:00:00 15.6 24 Oeste 35 Oeste 0 1005.4 0.6 66
2019-12-01 09:00:00 13 7 Sudeste 9 Sudeste 0 1004.9 0.4 85
2019-12-01 08:00:00 13.8 2 Este 15 Oeste 0 1004.9 0.2 80
2019-12-01 07:00:00 13.9 7 Oeste 13 Oeste 0 1004.8 -0.3 78
2019-12-01 06:00:00 13.9 5 Oeste 15 Sudoeste 0 1004.5 -0.8 77
2019-12-01 05:00:00 14.2 10 Sur 15 Sur 0 1004.7 -0.8 73
2019-12-01 04:00:00 14.7 9 Noroeste 18 Oeste 0 1005.1 -0.8 71
2019-12-01 03:00:00 15.2 15 Noroeste 26 Oeste 0 1005.3 -1 68
2019-12-01 02:00:00 15.8 19 Oeste 32 Oeste 0 1005.5 -1.3 65
2019-12-01 01:00:00 15.5 18 Oeste 33 Oeste 0 1005.9 -1.4 65
2019-12-01 00:00:00 15.9 25 Oeste 37 Oeste 0 1006.3 -1.1 64
2019-11-30 23:00:00 15.4 20 Oeste 28 Oeste 0 1006.8 -0.7 66
2019-11-30 22:00:00 15.5 18 Oeste 24 Oeste 0 1007.3 -0.1 64
2019-11-30 21:00:00 15.5 15 Oeste 26 Oeste 0 1007.4 0.1 66
2019-11-30 20:00:00 16.6 17 Oeste 26 Oeste 0 1007.5 0.2 62
2019-11-30 19:00:00 16.7 18 Oeste 22 Oeste 0 1007.4 -0.4 62
2019-11-30 18:00:00 19.7 16 Oeste 35 Oeste 0 1007.3 -1 50
2019-11-30 17:00:00 21.7 24 Sudoeste 35 Sudoeste 0 1007.3 -2 43
2019-11-30 16:00:00 22.7 23 Sudoeste 35 Sudoeste 0 1007.8 -2.7 41
2019-11-30 15:00:00 22.9 21 Oeste 37 Oeste 0 1008.3 -3.2 41
2019-11-30 14:00:00 22.5 22 Oeste 35 Oeste 0 1009.3 -3.2 45
2019-11-30 13:00:00 21.7 19 Sudoeste 32 Sudoeste 0 1010.5 -2.1 48
2019-11-30 12:00:00 20.7 23 Sudoeste 33 Oeste 0 1011.5 -1.1 53
2019-11-30 11:00:00 18 2 Noroeste 15 Norte 0 1012.5 -0.1 66
2019-11-30 10:00:00 14.5 6 Noroeste 9 Noroeste 0 1012.6 -0.3 78
2019-11-30 09:00:00 10.8 0 Calma 13 Noroeste 0 1012.6 0.1 91
2019-11-30 08:00:00 9.3 9 Noroeste 15 Noroeste 0 1012.6 0.1 94
2019-11-30 07:00:00 9.2 7 Noroeste 11 Noroeste 0 1012.9 0 93
2019-11-30 06:00:00 10 6 Noroeste 8 Oeste 0 1012.5 -0.6 92
2019-11-30 05:00:00 11.1 0 Calma 13 Noroeste 0 1012.5 -0.4 91
2019-11-30 04:00:00 10.9 10 Oeste 13 Oeste 0 1012.9 0 90
2019-11-30 03:00:00 12 8 Oeste 17 Oeste 0 1013.1 0 86
2019-11-30 02:00:00 11.9 9 Oeste 15 Norte 0 1012.9 -0.2 88
2019-11-30 01:00:00 12.2 3 Oeste 11 Noroeste 0 1012.9 -0.1 86
2019-11-30 00:00:00 13.1 5 Oeste 13 Oeste 0 1013.1 0.5 83
2019-11-29 23:00:00 13.7 10 Oeste 11 Oeste 0 1013.1 0.9 83
2019-11-29 22:00:00 14.3 11 Oeste 18 Oeste 0 1013 1.1 79
2019-11-29 21:00:00 16 13 Sudoeste 22 Oeste 0 1012.6 1.3 73
2019-11-29 20:00:00 17 17 Oeste 22 Oeste 0 1012.2 1.3 68
2019-11-29 19:00:00 18.3 16 Oeste 22 Oeste 0 1011.9 1.7 60
2019-11-29 18:00:00 19.5 17 Oeste 28 Oeste 0 1011.3 0.9 54
2019-11-29 17:00:00 21.8 23 Oeste 33 Oeste 0 1010.9 -0.1 48
2019-11-29 16:00:00 22.9 24 Sudoeste 32 Sudoeste 0 1010.2 -1.3 45
2019-11-29 15:00:00 21.5 18 Sudoeste 30 Oeste 0 1010.4 -1.8 49
2019-11-29 14:00:00 19.5 21 Sudoeste 35 Oeste 0 1011 -0.8 56
2019-11-29 13:00:00 19.4 18 Sudoeste 24 Sudoeste 0 1011.5 0.7 56
2019-11-29 12:00:00 18.7 8 Sur 28 Oeste 0 1012.2 1.7 58
2019-11-29 11:00:00 17.6 24 Oeste 46 Oeste 0 1011.8 2.2 61
2019-11-29 10:00:00 17.4 31 Oeste 45 Oeste 0 1010.8 1.6 60
2019-11-29 09:00:00 17.3 23 Oeste 48 Oeste 0 1010.5 2.1 59
2019-11-29 08:00:00 16.9 28 Oeste 50 Oeste 0 1009.6 1.2 60
2019-11-29 07:00:00 17.1 35 Oeste 55 Oeste 0 1009.2 0.8 59
2019-11-29 06:00:00 17.1 35 Oeste 52 Noroeste 0 1008.4 0.1 59
2019-11-29 05:00:00 17.2 30 Oeste 46 Oeste 0 1008.4 -0.2 57
2019-11-29 04:00:00 16 7 Sudoeste 35 Oeste 0 1008.4 -0.7 61
2019-11-29 03:00:00 16.8 21 Oeste 37 Oeste 0 1008.3 -1.2 57
2019-11-29 02:00:00 15.7 17 Sudoeste 24 Sudoeste 0 1008.6 -1.1 63
2019-11-29 01:00:00 15.4 9 Sur 18 Sudoeste 0 1009.1 -0.6 64
2019-11-29 00:00:00 -- -- -- 28 Sudoeste 0 1009.5 0.3 --
2019-11-28 23:00:00 15.3 17 Sur 24 Sur 0 1009.7 0.7 63
2019-11-28 22:00:00 15.5 11 Sur 24 Sudoeste 0 1009.7 1.3 60
2019-11-28 21:00:00 15.5 14 Sudoeste 26 Sudoeste 0 1009.2 1.3 60
2019-11-28 20:00:00 15.3 20 Sudoeste 30 Oeste 0 1009 1.2 60
2019-11-28 19:00:00 16 20 Oeste 45 Oeste 0 1008.4 0.6 56
2019-11-28 18:00:00 16.3 32 Oeste 45 Oeste 0 1007.9 0.7 55
2019-11-28 17:00:00 16.7 29 Sudoeste 42 Sudoeste 0 1007.8 -0.4 55
2019-11-28 16:00:00 17.2 26 Sudoeste 46 Sudoeste 0 1007.8 -1.1 54
2019-11-28 15:00:00 19.2 29 Sudoeste 42 Sudoeste 0 1007.2 -2.2 48
2019-11-28 14:00:00 19.1 20 Oeste 33 Oeste 0 1008.2 -1.6 47
2019-11-28 13:00:00 18.8 28 Oeste 48 Oeste 0 1008.9 -0.2 45
2019-11-28 12:00:00 18.2 35 Oeste 58 Oeste 0 1009.4 1 48
2019-11-28 11:00:00 17.2 25 Oeste 54 Oeste 0 1009.8 1.9 53
2019-11-28 10:00:00 16 39 Oeste 50 Oeste 0 1009.1 1.7 56
2019-11-28 09:00:00 14.5 31 Sudoeste 41 Oeste 0 1008.4 1.9 61
2019-11-28 08:00:00 13.7 23 Sudoeste 35 Sudoeste 0 1007.9 1.8 64
2019-11-28 07:00:00 14.1 27 Sudoeste 35 Sudoeste 0 1007.4 1.1 63
2019-11-28 06:00:00 14.3 17 Sudoeste 33 Oeste 0 1006.5 0.8 61
2019-11-28 05:00:00 14 28 Sudoeste 41 Oeste 0 1006.1 0.6 62
2019-11-28 04:00:00 14 25 Oeste 41 Oeste 0 1006.3 0.4 61
2019-11-28 03:00:00 14.9 29 Oeste 42 Oeste 0 1005.7 0.1 57
2019-11-28 02:00:00 14.8 34 Oeste 48 Oeste 0 1005.5 -0.4 59
2019-11-28 01:00:00 14.8 21 Oeste 39 Oeste 0 1005.9 0.4 59
2019-11-28 00:00:00 15.9 20 Oeste 37 Oeste 0 1005.6 0.6 55
2019-11-27 23:00:00 16.5 22 Oeste 46 Oeste 0 1005.9 1.2 51
2019-11-27 22:00:00 16.2 19 Oeste 28 Oeste 0 1005.5 1.1 50
2019-11-27 21:00:00 15.8 18 Oeste 32 Noroeste 0 1005 1.2 52
2019-11-27 20:00:00 15.5 10 Oeste 35 Oeste 0 1004.7 1.3 54
2019-11-27 19:00:00 16.3 8 Oeste 21 Oeste 0 1004.4 1.6 47
2019-11-27 18:00:00 17.1 18 Oeste 55 Oeste 0 1003.8 1.4 44
2019-11-27 17:00:00 18.8 37 Oeste 55 Noroeste 0 1003.4 0.4 37
2019-11-27 16:00:00 19.4 37 Oeste 65 Oeste 0 1002.8 -0.6 37
2019-11-27 15:00:00 19.8 44 Oeste 58 Oeste 0 1002.4 -1.5 38
2019-11-27 14:00:00 20.9 40 Oeste 61 Oeste 0 1003 -1.6 40
2019-11-27 06:00:00 16.7 17 Sudoeste 32 Oeste 0 1001 -0.3 63
2019-11-27 05:00:00 17.2 13 Oeste 41 Sudoeste 0 1001 -0.2 65
2019-11-27 04:00:00 17.7 26 Sudoeste 46 Sudoeste 0 1000.9 0.1 67
2019-11-27 03:00:00 18.4 22 Oeste 39 Oeste 0 1001.3 0.1 64
2019-11-27 02:00:00 18.3 17 Sudoeste 50 Oeste 0 1001.2 -0.7 65
2019-11-27 01:00:00 18.4 39 Oeste 59 Oeste 0 1000.8 -1.3 63
2019-11-27 00:00:00 18.2 13 Sudoeste 24 Oeste 0 1001.2 -0.9 63
2019-11-26 23:00:00 18.4 15 Oeste 41 Oeste 0 1001.9 -0.5 62
2019-11-26 22:00:00 18.7 30 Oeste 50 Oeste 0 1002.1 -0.5 63
2019-11-26 21:00:00 18.5 17 Oeste 33 Oeste 0 1002.1 -0.5 64
2019-11-26 20:00:00 18.5 20 Oeste 35 Oeste 0 1002.4 0.1 58
2019-11-26 19:00:00 18.7 16 Sudoeste 32 Sudoeste 0 1002.6 0.2 61
2019-11-26 18:00:00 19.2 15 Oeste 37 Sudoeste 0 1002.6 0 58
2019-11-26 17:00:00 20.2 27 Sudoeste 41 Oeste 0 1002.3 -1.1 56
2019-11-26 16:00:00 21.5 29 Sudoeste 46 Sudoeste 0 1002.4 -1.6 51
2019-11-26 15:00:00 23 30 Oeste 46 Oeste 0 1002.6 -2.3 42
2019-11-26 14:00:00 22.5 32 Sudoeste 52 Oeste 0 1003.4 -2.2 41
2019-11-26 13:00:00 22 25 Oeste 39 Oeste 0 1004 -1.9 39
2019-11-26 12:00:00 21.2 26 Oeste 39 Noroeste 0 1004.9 -0.5 41
2019-11-26 11:00:00 20.2 22 Oeste 33 Oeste 0 1005.6 0.1 46
2019-11-26 10:00:00 17.6 12 Oeste 18 Oeste 0 1005.9 0.6 58
2019-11-26 09:00:00 14.5 12 Oeste 18 Oeste 0 1005.4 -0.2 73
2019-11-26 08:00:00 13.3 16 Oeste 22 Oeste 0 1005.5 0.1 76
2019-11-26 07:00:00 11.8 13 Oeste 17 Oeste 0 1005.3 -0.4 83
2019-11-26 06:00:00 11.9 14 Oeste 15 Oeste 0 1005.6 -0.6 83
2019-11-26 05:00:00 11.9 11 Oeste 17 Oeste 0 1005.4 -1.2 82
2019-11-26 04:00:00 12.7 9 Oeste 18 Oeste 0 1005.7 -1.4 80
2019-11-26 03:00:00 12.5 15 Oeste 18 Oeste 0 1006.2 -1.3 81
2019-11-26 02:00:00 12.2 10 Oeste 17 Oeste 0 1006.6 -0.7 79
2019-11-26 01:00:00 13.3 9 Oeste 22 Oeste 0 1007.1 0.1 75
2019-11-26 00:00:00 13.4 12 Noroeste 18 Oeste 0 1007.5 0.5 75
2019-11-25 23:00:00 14.6 13 Oeste 18 Oeste 0 1007.3 0.7 70
2019-11-25 22:00:00 14.5 15 Oeste 17 Oeste 0 1007 1 73
2019-11-25 21:00:00 15 13 Oeste 21 Oeste 0 1007 1.6 73
2019-11-25 20:00:00 16.9 11 Oeste 30 Oeste 0 1006.6 1.8 64
2019-11-25 19:00:00 17.2 21 Oeste 30 Oeste 0 1006 1.8 66
2019-11-25 18:00:00 18.5 20 Oeste 35 Oeste 0 1005.4 1.3 57
2019-11-25 17:00:00 21.3 23 Oeste 45 Oeste 0 1004.8 0.8 38
2019-11-25 16:00:00 21.8 35 Oeste 54 Oeste 0 1004.2 -0.5 37
2019-11-25 15:00:00 22.2 36 Oeste 50 Oeste 0 1004.1 -1.4 37
2019-11-25 14:00:00 21.5 32 Oeste 50 Oeste 0 1004 -2.4 41
2019-11-25 13:00:00 21 24 Oeste 46 Oeste 0 1004.7 -1.7 46
2019-11-25 12:00:00 18.8 37 Oeste 48 Oeste 0 1005.5 -0.7 55
2019-11-25 11:00:00 17.8 24 Sudoeste 35 Oeste 0 1006.4 0.2 59
2019-11-25 10:00:00 15.5 25 Oeste 35 Oeste 0 1006.4 0.3 67
2019-11-25 09:00:00 14.7 27 Sudoeste 41 Oeste 0 1006.2 0.7 70
2019-11-25 08:00:00 13.8 29 Oeste 42 Oeste 0 1006.2 1.2 71
2019-11-25 07:00:00 11.5 19 Oeste 22 Oeste 0 1006.1 0.8 77
2019-11-25 06:00:00 13.2 12 Oeste 32 Oeste 0 1005.5 -0.4 68
2019-11-25 05:00:00 13.6 18 Oeste 48 Oeste 0 1005 -0.7 64
2019-11-25 04:00:00 14 36 Oeste 54 Oeste 0 1005.3 -0.7 61
2019-11-25 03:00:00 12.9 15 Sudoeste 46 Oeste 0 1005.9 -0.1 63
2019-11-25 02:00:00 13 15 Oeste 45 Oeste 0 1005.7 -0.3 61
2019-11-25 01:00:00 12.8 22 Oeste 48 Oeste 0 1006 -0.1 57
2019-11-25 00:00:00 12.8 26 Oeste 46 Oeste 0 1006 0.2 54
2019-11-24 23:00:00 12.4 16 Oeste 30 Oeste 0 1006 0.1 55
2019-11-24 22:00:00 12.1 10 Oeste 24 Oeste 0 1006.1 0.7 56
2019-11-24 21:00:00 12 11 Sudoeste 28 Oeste 0 1005.8 1.2 54
2019-11-24 20:00:00 13 14 Oeste 21 Oeste 0 1005.9 1.9 49
2019-11-24 19:00:00 13.8 10 Sudoeste 22 Oeste 0 1005.4 1.8 49
2019-11-24 18:00:00 15 14 Oeste 26 Oeste 0 1004.6 1.3 43
2019-11-24 17:00:00 17 18 Oeste 37 Oeste 0 1004 0.5 37
2019-11-24 16:00:00 19.1 23 Oeste 39 Oeste 0 1003.6 -0.3 29
2019-11-24 15:00:00 19.2 27 Oeste 41 Oeste 0 1003.3 -0.9 29
2019-11-24 14:00:00 18.7 24 Oeste 46 Oeste 0 1003.5 -1.2 30
2019-11-24 13:00:00 17.4 30 Oeste 45 Noroeste 0 1003.9 -0.4 32
2019-11-24 12:00:00 17.5 33 Oeste 46 Oeste 0 1004.2 0.3 31
2019-11-24 11:00:00 16.2 22 Oeste 32 Oeste 0 1004.7 1.1 36
2019-11-24 10:00:00 14.3 13 Sudoeste 30 Oeste 0 1004.3 2 43
2019-11-24 09:00:00 11.2 15 Oeste 28 Oeste 0 1003.9 2.1 54
2019-11-24 08:00:00 9.2 18 Sudoeste 33 Oeste 0 1003.6 2.2 63
2019-11-24 07:00:00 10 28 Oeste 48 Oeste 0 1002.3 1.2 60
2019-11-24 06:00:00 9.7 23 Oeste 41 Oeste 0 1001.8 1.2 60
2019-11-24 05:00:00 10.3 32 Sudoeste 42 Sudoeste 0 1001.4 1.4 58
2019-11-24 04:00:00 11.1 30 Sudoeste 37 Sudoeste 0 1001.1 1.2 54
2019-11-24 03:00:00 11.2 19 Sur 33 Oeste 0 1000.6 1.2 54
2019-11-24 02:00:00 12.3 26 Oeste 42 Oeste 0 1000 1.3 49
2019-11-24 01:00:00 12.4 30 Oeste 50 Oeste 0 999.9 1.7 49
2019-11-24 00:00:00 13.2 26 Oeste 46 Oeste 0 999.4 2 45
2019-11-23 23:00:00 13.8 32 Oeste 54 Oeste 0 998.7 1.8 41
2019-11-23 22:00:00 14.1 30 Oeste 54 Oeste 0 998.2 1.7 41
2019-11-23 21:00:00 14.3 36 Oeste 48 Oeste 0 997.4 2.4 39
2019-11-23 20:00:00 14.2 28 Oeste 42 Oeste 0 996.9 3.4 38
2019-11-23 19:00:00 14.9 24 Oeste 45 Oeste 0 996.5 3.9 35
2019-11-23 18:00:00 15.5 30 Oeste 50 Oeste 0 995 3.2 33
2019-11-23 17:00:00 16.6 35 Oeste 61 Noroeste 0 993.5 2.2 32
2019-11-23 16:00:00 17.4 37 Oeste 61 Oeste 0 992.6 2.1 32
2019-11-23 15:00:00 17.8 35 Oeste 65 Noroeste 0 991.8 1.2 33
2019-11-23 14:00:00 16.8 35 Oeste 65 Oeste 0 991.3 1.3 37
2019-11-23 13:00:00 15.6 45 Oeste 65 Noroeste 0 990.5 1.6 42
2019-11-23 12:00:00 14.4 31 Oeste 50 Oeste 0 990.6 3 49
2019-11-23 11:00:00 13.9 41 Oeste 67 Oeste 0 990 3.2 52
2019-11-23 10:00:00 13.1 30 Oeste 52 Oeste 0 988.9 3.5 56
2019-11-23 09:00:00 13.1 32 Oeste 46 Oeste 0 987.6 2.3 57
2019-11-23 08:00:00 11.9 22 Oeste 54 Oeste 0 986.8 1.7 61
2019-11-23 07:00:00 12.2 40 Oeste 59 Oeste 0 985.4 0.2 59
2019-11-23 06:00:00 12.5 24 Oeste 61 Oeste 0 985.3 0 71
2019-11-23 05:00:00 13.2 36 Oeste 59 Oeste 0 985.1 -0.4 64
2019-11-23 04:00:00 13.6 25 Oeste 46 Oeste 0 985.2 -0.5 65
2019-11-23 03:00:00 14.3 31 Oeste 48 Oeste 0 985.3 -0.9 67
2019-11-23 02:00:00 14.4 23 Oeste 42 Oeste 0 985.5 -0.9 68
2019-11-23 01:00:00 14.5 27 Oeste 42 Oeste 0 985.7 -1 71
2019-11-23 00:00:00 14.5 22 Sudoeste 35 Sudoeste 0 986.2 -0.5 77
2019-11-22 23:00:00 14.9 27 Sudoeste 45 Sudoeste 0 986.4 -1.5 79
2019-11-22 22:00:00 11.6 11 Oeste 17 Noroeste 0 986.7 -1.6 95
2019-11-22 21:00:00 13.2 5 Sudoeste 9 Sudoeste 0 986.7 -1.9 94
2019-11-22 20:00:00 13.3 7 Oeste 17 Noroeste 0 987.9 -2.1 95
2019-11-22 19:00:00 14.8 9 Sur 24 Sur 0 988.3 -2.3 85
2019-11-22 18:00:00 14.6 12 Sur 21 Sur 0.3 988.6 -2.7 87
2019-11-22 17:00:00 15.2 8 Sudeste 11 Sudeste 0.5 990 -2.7 84
2019-11-22 16:00:00 16.3 6 Este 18 Este 0 990.6 -3.9 71
2019-11-22 15:00:00 16.4 12 Este 22 Sudeste 0 991.3 -5.1 68
2019-11-22 14:00:00 16.3 12 Este 21 Sudeste 0 992.7 -4.4 65
2019-11-22 13:00:00 15.8 14 Sudeste 22 Sudeste 0 994.5 -3.5 64
2019-11-22 12:00:00 14.9 9 Sudeste 15 Sudeste 0 996.4 -1.9 67
2019-11-22 11:00:00 13.3 5 Este 11 Nordeste 0 997.1 -1.5 76
2019-11-22 10:00:00 11.6 6 Oeste 9 Noroeste 0 998 -0.7 85
2019-11-22 09:00:00 9.5 7 Oeste 11 Oeste 0 998.3 -0.9 92
2019-11-22 08:00:00 8.5 6 Noroeste 11 Noroeste 0 998.6 -0.6 94
2019-11-22 07:00:00 8.4 2 Noroeste 9 Noroeste 0 998.7 -0.6 92
2019-11-22 06:00:00 8.1 9 Oeste 11 Oeste 0 999.2 -0.3 92
2019-11-22 05:00:00 8.8 9 Oeste 13 Noroeste 0 999.2 -0.8 92
2019-11-22 04:00:00 10.5 10 Sudoeste 17 Sudoeste 0 999.3 -1.1 84
2019-11-22 03:00:00 10.7 6 Sudoeste 17 Oeste 0 999.5 -1.5 84
2019-11-22 02:00:00 11.2 13 Oeste 15 Oeste 0 1000 -0.8 82
2019-11-22 01:00:00 11.9 10 Oeste 13 Oeste 0 1000.4 -0.5 81
2019-11-22 00:00:00 12.5 4 Oeste 17 Oeste 0 1001 0.1 78
2019-11-21 23:00:00 12.6 13 Oeste 18 Oeste 0 1000.8 -0.2 77
2019-11-21 22:00:00 12.2 0 Calma 9 Oeste 0 1000.9 0.2 77
2019-11-21 21:00:00 12.6 5 Oeste 8 Oeste 0 1000.9 0.5 73
2019-11-21 20:00:00 13.3 6 Sudoeste 15 Sur 0 1001 0.9 71
2019-11-21 19:00:00 13.5 12 Sur 17 Sur 0 1000.7 0.4 69
2019-11-21 18:00:00 14.1 13 Sur 21 Sur 0 1000.4 -0.1 65
2019-11-21 17:00:00 15.7 16 Sur 22 Sur 0 1000.1 -0.7 60
2019-11-21 16:00:00 16.3 11 Sudoeste 21 Sudoeste 0 1000.3 -1.3 53
2019-11-21 15:00:00 16 17 Sudoeste 32 Sudoeste 0 1000.5 -1.7 54
2019-11-21 14:00:00 16.2 20 Sudoeste 30 Sudoeste 0 1000.8 -1.6 54
2019-11-21 13:00:00 15.5 18 Sudoeste 32 Oeste 0 1001.6 -0.9 58
2019-11-21 12:00:00 15.2 17 Sudoeste 28 Oeste 0 1002.2 -0.1 57
2019-11-21 11:00:00 15.4 14 Oeste 22 Oeste 0 1002.4 0.8 58
2019-11-21 10:00:00 13 8 Sudoeste 18 Sudoeste 0 1002.5 1.3 68
2019-11-21 09:00:00 10 10 Sur 17 Sur 0 1002.3 1.1 81
2019-11-21 08:00:00 -- -- -- -- -- -- -- -- --
2019-11-21 07:00:00 -- -- -- -- -- -- -- -- --
2019-11-21 06:00:00 -- -- -- -- -- -- -- -- --
2019-11-21 05:00:00 -- -- -- -- -- -- -- -- --
2019-11-21 04:00:00 -- -- -- -- -- -- -- -- --
2019-11-21 03:00:00 -- -- -- -- -- -- -- -- --
2019-11-21 02:00:00 -- -- -- -- -- -- -- -- --
2019-11-21 01:00:00 -- -- -- -- -- -- -- -- --
2019-11-21 00:00:00 -- -- -- -- -- -- -- -- --
2019-11-20 23:00:00 -- -- -- -- -- -- -- -- --
2019-11-20 22:00:00 -- -- -- -- -- -- -- -- --
2019-11-20 21:00:00 -- -- -- -- -- -- -- -- --
2019-11-20 20:00:00 -- -- -- -- -- -- -- -- --
2019-11-20 19:00:00 12.8 10 Sur 17 Sur 0 1001.8 0.1 61
2019-11-20 18:00:00 13.3 10 Sur 28 Sur 0 1001.7 -0.3 60
2019-11-20 17:00:00 15.1 21 Sur 28 Sur 0 1001.7 -1 49
2019-11-20 16:00:00 17.1 15 Oeste 30 Sudoeste 0 1001.7 -1.9 33
2019-11-20 15:00:00 17.2 17 Sudoeste 30 Sudoeste 0 1002 -2.8 31
2019-11-20 14:00:00 16.9 15 Sudoeste 28 Sur 0 1002.7 -2.9 37
2019-11-20 13:00:00 16.5 6 Sudeste 13 Sur 0 1003.6 -2.2 40
2019-11-20 12:00:00 15.4 6 Sudoeste 13 Oeste 0 1004.8 -1 44
2019-11-20 11:00:00 13.3 7 Oeste 13 Oeste 0 1005.6 -0.2 48
2019-11-20 10:00:00 10.8 5 Noroeste 11 Sudoeste 0 1005.8 0 56
2019-11-20 09:00:00 7 10 Sudoeste 11 Sudoeste 0 1005.8 0.1 69
2019-11-20 08:00:00 5.1 6 Oeste 13 Oeste 0 1005.8 0 76
2019-11-20 07:00:00 5.2 10 Oeste 15 Oeste 0 1005.8 -0.8 77
2019-11-20 06:00:00 6.5 12 Oeste 17 Noroeste 0 1005.7 -1.1 72
2019-11-20 05:00:00 6.1 9 Noroeste 13 Noroeste 0 1005.8 -1.1 74
2019-11-20 04:00:00 6.2 11 Oeste 13 Oeste 0 1006.6 -1 75
2019-11-20 03:00:00 7.2 10 Sudoeste 13 Sudoeste 0 1006.8 -0.5 69
2019-11-20 02:00:00 6.9 5 Noroeste 13 Sudoeste 0 1006.9 -0.9 72
2019-11-20 01:00:00 6.8 11 Oeste 15 Oeste 0 1007.6 -0.3 73
2019-11-20 00:00:00 7.1 8 Noroeste 18 Noroeste 0 1007.3 -0.3 72
2019-11-19 23:00:00 8.4 13 Noroeste 17 Noroeste 0 1007.8 0.4 66
2019-11-19 22:00:00 8.3 10 Oeste 17 Oeste 0 1007.9 0.7 71
2019-11-19 21:00:00 8.3 9 Noroeste 15 Noroeste 0 1007.6 0.9 71
2019-11-19 20:00:00 11.2 11 Sudeste 15 Sudeste 0 1007.4 1.1 55
2019-11-19 19:00:00 11.9 7 Sudeste 21 Sudeste 0 1007.2 0.8 51
2019-11-19 18:00:00 13.1 14 Sudeste 21 Sudeste 0 1006.7 0.1 47
2019-11-19 17:00:00 16.8 9 Este 15 Nordeste 0 1006.3 -1.2 30
2019-11-19 16:00:00 18.1 3 Sudoeste 21 Oeste 0 1006.4 -1.9 26
2019-11-19 15:00:00 17.4 13 Sudoeste 21 Sur 0 1006.6 -2.9 28
2019-11-19 14:00:00 15.9 15 Sudoeste 26 Sudoeste 0 1007.5 -2.6 32
2019-11-19 13:00:00 14.9 12 Sudoeste 22 Sudoeste 0 1008.3 -2.1 31
2019-11-19 12:00:00 13.9 11 Sudoeste 17 Sudoeste 0 1009.5 -0.6 35
2019-11-19 11:00:00 11.8 10 Sudoeste 21 Sudoeste 0 1010.1 0.5 43
2019-11-19 10:00:00 9.3 13 Sudoeste 24 Oeste 0 1010.4 1.4 53
2019-11-19 09:00:00 5.8 16 Oeste 22 Oeste 0 1010.1 1.5 66
2019-11-19 08:00:00 2.8 10 Oeste 21 Oeste 0 1009.6 1 76
2019-11-19 07:00:00 1.7 10 Sudoeste 15 Sudoeste 0 1009 0.3 78
2019-11-19 06:00:00 3.1 8 Oeste 15 Oeste 0 1008.6 -0.6 74
2019-11-19 05:00:00 3.4 10 Oeste 22 Oeste 0 1008.6 -0.2 73
2019-11-19 04:00:00 5.1 17 Noroeste 22 Noroeste 0 1008.7 -0.4 67
2019-11-19 03:00:00 3.9 11 Oeste 18 Oeste 0 1009.2 0.2 73
2019-11-19 02:00:00 4.4 13 Oeste 17 Oeste 0 1008.8 0.6 72
2019-11-19 01:00:00 4.1 11 Oeste 17 Oeste 0 1009.1 1 73
2019-11-19 00:00:00 5.1 13 Oeste 18 Oeste 0 1009 1.5 67
2019-11-18 23:00:00 5.8 10 Oeste 15 Oeste 0 1008.2 1.2 63
2019-11-18 22:00:00 6.6 12 Oeste 21 Noroeste 0 1008.1 1.6 60
2019-11-18 21:00:00 11.7 15 Noroeste 33 Noroeste 0 1007.5 1.9 41
2019-11-18 20:00:00 12 16 Noroeste 28 Norte 0 1007 2 39
2019-11-18 19:00:00 11.8 13 Noroeste 22 Noroeste 0 1006.5 2 38
2019-11-18 18:00:00 13.2 15 Noroeste 30 Norte 0 1005.6 1.5 35
2019-11-18 17:00:00 15.1 24 Noroeste 33 Norte 0 1005 1.2 31
2019-11-18 16:00:00 14.7 12 Sudeste 21 Sudeste 0 1004.5 0.9 49
2019-11-18 15:00:00 14.9 14 Sudeste 22 Sudeste 0 1004.1 0.5 48
2019-11-18 14:00:00 15.5 3 Nordeste 30 Noroeste 0 1003.8 0.8 38
2019-11-18 13:00:00 16 16 Norte 30 Norte 0 1003.6 1.4 31
2019-11-18 12:00:00 16.3 18 Norte 35 Noroeste 0 1003.6 1.8 33
2019-11-18 11:00:00 14.6 15 Noroeste 26 Noroeste 0 1003 1.7 42
2019-11-18 10:00:00 11.9 15 Oeste 21 Oeste 0 1002.2 1.1 54
2019-11-18 09:00:00 9.5 14 Noroeste 28 Noroeste 0 1001.8 1.6 61
2019-11-18 08:00:00 7.3 15 Oeste 21 Noroeste 0 1001.3 1.2 72
2019-11-18 07:00:00 8.2 16 Noroeste 26 Noroeste 0 1001.1 0.8 69
2019-11-18 06:00:00 9 19 Noroeste 28 Noroeste 0 1000.2 -0.2 71
2019-11-18 05:00:00 9.7 21 Noroeste 28 Noroeste 0 1000.1 -0.3 70
2019-11-18 04:00:00 9.8 13 Oeste 17 Oeste 0 1000.3 -1 75
2019-11-18 03:00:00 11.1 10 Oeste 21 Oeste 0 1000.4 -0.9 71
2019-11-18 02:00:00 11.1 14 Oeste 22 Sudoeste 0 1000.4 -1.8 74
2019-11-18 01:00:00 -- 12 Oeste 17 Oeste 0 1001.3 -1.3 --
2019-11-18 00:00:00 11.9 3 Sudoeste 18 Oeste 0 1001.3 -1.1 72
2019-11-17 23:00:00 11.3 12 Oeste 22 Oeste 0 1002.2 -0.7 76
2019-11-17 22:00:00 11.8 14 Oeste 21 Oeste 0 1002.6 -0.5 68
2019-11-17 21:00:00 11.7 14 Oeste 35 Oeste 0 1002.4 -0.8 68
2019-11-17 20:00:00 12 18 Oeste 26 Oeste 0 1002.9 0.3 66
2019-11-17 19:00:00 12.1 12 Sudoeste 33 Oeste 0 1003.1 0.8 64
2019-11-17 18:00:00 12.7 24 Oeste 48 Oeste 0 1003.2 0.2 60
2019-11-17 17:00:00 13.9 38 Oeste 52 Oeste 0 1002.6 -1 52
2019-11-17 16:00:00 15 36 Oeste 55 Oeste 0 1002.3 -2.3 46
2019-11-17 15:00:00 15.7 31 Oeste 45 Oeste 0 1003 -2.5 39
2019-11-17 14:00:00 15.4 29 Oeste 41 Oeste 0 1003.6 -2 37
2019-11-17 13:00:00 14.5 25 Sudoeste 45 Oeste 0 1004.6 -1.4 40
2019-11-17 12:00:00 14.3 28 Oeste 41 Oeste 0 1005.5 -0.5 37
2019-11-17 11:00:00 13.6 13 Oeste 22 Sudoeste 0 1005.6 -0.5 36
2019-11-17 10:00:00 11.9 19 Oeste 39 Noroeste 0 1006 0.2 39
2019-11-17 09:00:00 8.3 13 Sudoeste 24 Oeste 0 1006 0.3 51
2019-11-17 08:00:00 6 20 Oeste 30 Oeste 0 1006.1 -0.1 62
2019-11-17 07:00:00 5.5 20 Sudoeste 26 Sudoeste 0 1005.8 -0.4 65
2019-11-17 06:00:00 5 18 Oeste 21 Oeste 0 1005.7 -0.6 67
2019-11-17 05:00:00 5.3 5 Noroeste 22 Sudoeste 0 1006.2 -0.4 65
2019-11-17 04:00:00 6.7 17 Oeste 24 Oeste 0 1006.2 -0.7 61
2019-11-17 03:00:00 7.8 14 Sudoeste 30 Sudoeste 0 1006.3 -0.4 56
2019-11-17 02:00:00 7.7 20 Oeste 32 Oeste 0 1006.6 -0.5 54
2019-11-17 01:00:00 7.2 8 Oeste 21 Oeste 0 1006.9 -0.1 59
2019-11-17 00:00:00 7.6 12 Oeste 24 Oeste 0 1006.7 -0.1 59
2019-11-16 23:00:00 8.8 23 Oeste 32 Oeste 0 1007.1 0.5 54
2019-11-16 22:00:00 8.3 19 Oeste 26 Oeste 0 1007 1.1 55
2019-11-16 21:00:00 6.8 14 Oeste 21 Oeste 0 1006.8 1.5 58
2019-11-16 20:00:00 8.2 13 Oeste 17 Oeste 0 1006.6 2.3 71
2019-11-16 19:00:00 12 3 Nordeste 17 Norte 0 1005.9 2.3 59
2019-11-16 18:00:00 13.4 11 Norte 26 Noroeste 0 1005.3 1.9 51
2019-11-16 17:00:00 15.9 15 Noroeste 32 Noroeste 0 1004.3 0.6 22
2019-11-16 16:00:00 17.4 11 Noroeste 28 Oeste 0 1003.6 -0.5 24
2019-11-16 15:00:00 16.8 16 Oeste 28 Noroeste 0 1003.4 -1.2 25
2019-11-16 14:00:00 16.3 12 Oeste 22 Noroeste 0 1003.7 -1.1 26
2019-11-16 13:00:00 15.5 6 Noroeste 18 Oeste 0 1004.1 -0.2 30
2019-11-16 12:00:00 14.5 7 Oeste 17 Oeste 0 1004.6 0.6 36
2019-11-16 11:00:00 12.8 9 Noroeste 18 Noroeste 0 1004.8 1.8 40
2019-11-16 10:00:00 10.7 11 Oeste 18 Noroeste 0 1004.3 2.1 51
2019-11-16 09:00:00 5.8 11 Oeste 17 Oeste 0 1004 2.6 72
2019-11-16 08:00:00 4.3 14 Oeste 21 Oeste 0 1003 2.2 76
2019-11-16 07:00:00 4.9 15 Oeste 22 Oeste 0 1002.2 1.7 73
2019-11-16 06:00:00 5.3 13 Oeste 22 Oeste 0 1001.4 1.3 72
2019-11-16 05:00:00 5.1 17 Oeste 21 Oeste 0 1000.8 1 73
2019-11-16 04:00:00 5.1 13 Oeste 18 Oeste 0 1000.5 0.9 73
2019-11-16 03:00:00 6.5 13 Oeste 18 Oeste 0 1000.1 0.9 67
2019-11-16 02:00:00 6.3 16 Oeste 18 Oeste 0 999.8 1.1 70
2019-11-16 01:00:00 6.6 13 Noroeste 21 Oeste 0 999.6 1.5 73
2019-11-16 00:00:00 7.8 13 Oeste 21 Oeste 0 999.2 1.6 67
2019-11-15 23:00:00 7.9 14 Noroeste 22 Oeste 0 998.7 1.5 66
2019-11-15 22:00:00 9.7 18 Noroeste 22 Oeste 0 998.1 1.6 59
2019-11-15 21:00:00 10.2 9 Oeste 22 Oeste 0 997.6 1.9 59
2019-11-15 20:00:00 11.7 22 Oeste 35 Oeste 0 997.2 1.9 53
2019-11-15 19:00:00 12.8 28 Oeste 35 Sudoeste 0 996.5 1.4 49
2019-11-15 18:00:00 13.7 14 Oeste 30 Oeste 0 995.7 0.9 38
2019-11-15 17:00:00 14.8 20 Oeste 32 Oeste 0 995.3 0.6 33
2019-11-15 16:00:00 16.3 23 Oeste 39 Noroeste 0 995.1 -0.1 31
2019-11-15 15:00:00 15.6 25 Noroeste 37 Noroeste 0 994.8 -1.1 31
2019-11-15 14:00:00 16.1 23 Oeste 39 Noroeste 0 994.7 -1.2 31
2019-11-15 13:00:00 15.6 24 Noroeste 45 Noroeste 0 995.2 -1.2 33
2019-11-15 12:00:00 14.3 29 Noroeste 46 Noroeste 0 995.9 -0.2 38
2019-11-15 11:00:00 13.2 28 Noroeste 42 Oeste 0 995.9 0.4 42
2019-11-15 10:00:00 11.4 16 Noroeste 28 Noroeste 0 996.4 1.3 51
2019-11-15 09:00:00 8.4 12 Oeste 21 Oeste 0 996.1 1.4 65
2019-11-15 08:00:00 6.7 17 Oeste 21 Oeste 0 995.5 1.1 68
2019-11-15 07:00:00 6.4 8 Oeste 15 Noroeste 0 995.1 1.1 71
2019-11-15 06:00:00 6.4 6 Nordeste 15 Noroeste 0 994.7 1.2 72
2019-11-15 05:00:00 8.1 0 Calma 22 Oeste 0 994.4 1.2 65
2019-11-15 04:00:00 8.8 10 Noroeste 28 Noroeste 0 994 0.9 61
2019-11-15 03:00:00 9.5 23 Oeste 46 Oeste 0 993.5 0.3 57
2019-11-15 02:00:00 10.1 37 Oeste 52 Oeste 0 993.2 0.1 55
2019-11-15 01:00:00 9.7 30 Oeste 52 Oeste 0 993.1 -0.3 59
2019-11-15 00:00:00 10.6 37 Oeste 52 Oeste 0 993.2 -0.5 62
2019-11-14 23:00:00 9.5 11 Norte 30 Oeste 0 993.1 -0.2 65
2019-11-14 22:00:00 10.6 11 Oeste 30 Oeste 0 993.4 0.1 61
2019-11-14 21:00:00 10.3 19 Oeste 42 Oeste 0 993.7 1.2 60
2019-11-14 20:00:00 10 16 Noroeste 33 Noroeste 0 993.3 0.7 64
2019-11-14 19:00:00 11.4 12 Sur 24 Sur 0 993.3 0.8 58
2019-11-14 18:00:00 12.2 19 Sudoeste 32 Sudoeste 0 992.5 -0.1 54
2019-11-14 17:00:00 13.7 26 Sudoeste 41 Oeste 0 992.6 0 45
2019-11-14 16:00:00 13.7 22 Oeste 52 Oeste 0 992.5 -1.2 44
2019-11-14 15:00:00 14 36 Oeste 58 Oeste 0 992.6 -0.9 44
2019-11-14 14:00:00 15.1 7 Sur 33 Noroeste 0 992.6 -1.3 46
2019-11-14 13:00:00 12.2 30 Noroeste 72 Noroeste 0 993.7 -0.5 56
2019-11-14 12:00:00 16.5 26 Oeste 54 Oeste 0 993.5 -1.2 52
2019-11-14 11:00:00 16.6 35 Oeste 52 Sudoeste 0 993.9 -1.1 49
2019-11-14 10:00:00 14.9 35 Oeste 61 Sudoeste 0 994.2 -1.1 53
2019-11-14 09:00:00 14.7 37 Oeste 63 Oeste 0 994.7 -1.5 52
2019-11-14 08:00:00 14.9 30 Oeste 63 Oeste 0 995 -2 57
2019-11-14 07:00:00 15.6 12 Sudoeste 24 Oeste 0 995.3 -2.7 61
2019-11-14 06:00:00 15.7 8 Sudoeste 17 Oeste 0 996.2 -2.4 62
2019-11-14 05:00:00 15.8 7 Oeste 32 Oeste 0 997 -2.8 67
2019-11-14 04:00:00 15.7 22 Sudoeste 42 Oeste 0 998 -3.2 68
2019-11-14 03:00:00 14.5 28 Oeste 37 Oeste 0 998.6 -3.2 74
2019-11-14 02:00:00 12.9 18 Oeste 33 Oeste 0 999.8 -3.1 75
2019-11-14 01:00:00 9 6 Oeste 15 Norte 0 1001.2 -2 83
2019-11-14 00:00:00 9.9 10 Noroeste 17 Noroeste 0 1001.8 -1.5 79
2019-11-13 23:00:00 10.1 8 Noroeste 11 Noroeste 0 1002.9 -0.6 90
2019-11-13 22:00:00 10.9 5 Sudoeste 15 Sur 0 1003.2 -0.1 86
2019-11-13 21:00:00 12.8 8 Sur 11 Sur 0 1003.3 0.6 85
2019-11-13 20:00:00 12.7 4 Sur 8 Oeste 0 1003.5 1.1 85
2019-11-13 19:00:00 14.6 5 Sur 15 Sur 0 1003.3 1.5 76
2019-11-13 18:00:00 16.8 12 Sur 24 Noroeste 0 1002.7 1.7 64
2019-11-13 17:00:00 19.7 17 Norte 35 Noroeste 0 1002.4 2 31
2019-11-13 16:00:00 20.3 28 Norte 42 Norte 0 1001.8 1.9 30
2019-11-13 15:00:00 19.7 25 Norte 42 Norte 0 1001 1.6 36
2019-11-13 14:00:00 19.7 15 Norte 39 Noroeste 0 1000.4 2.1 49
2019-11-13 13:00:00 18.2 5 Sudeste 17 Norte 0 999.9 2.4 70
2019-11-13 12:00:00 16.6 6 Noroeste 35 Norte 0.4 999.4 2 78
2019-11-13 11:00:00 17.9 12 Sudoeste 18 Sudoeste 0 998.3 1.3 67
2019-11-13 10:00:00 15.8 13 Sudoeste 24 Sudoeste 0 997.5 0.3 76
2019-11-13 09:00:00 15 17 Sudoeste 30 Sudoeste 0 997.4 -0.3 76
2019-11-13 08:00:00 13.3 11 Sur 21 Sur 0 997 -1.2 83
2019-11-13 07:00:00 12.9 13 Sur 18 Sudoeste 0.5 997.2 -1.2 83
2019-11-13 06:00:00 13.1 9 Sudoeste 18 Oeste 0.3 997.7 -1.6 77
2019-11-13 05:00:00 14.2 15 Oeste 39 Oeste 0 998.2 -1.6 57
2019-11-13 04:00:00 14.2 32 Oeste 45 Oeste 0 998.4 -2.5 55
2019-11-13 03:00:00 13.6 18 Oeste 28 Oeste 0 999.3 -2.6 56
2019-11-13 02:00:00 14.3 18 Sudoeste 26 Sudoeste 0 999.8 -2.6 49
2019-11-13 01:00:00 15 17 Oeste 30 Oeste 0 1000.9 -1.6 44
2019-11-13 00:00:00 14.5 12 Oeste 22 Sudoeste 0 1001.9 -0.8 43
2019-11-12 23:00:00 14.4 19 Sudoeste 30 Oeste 0 1002.4 -0.3 43
2019-11-12 22:00:00 14.2 27 Oeste 46 Oeste 0 1002.5 0.1 45
2019-11-12 21:00:00 13 16 Oeste 26 Oeste 0 1002.7 0.4 47
2019-11-12 20:00:00 14.4 9 Sur 15 Sudoeste 0 1002.7 0.8 38
2019-11-12 19:00:00 14.5 6 Norte 18 Noroeste 0 1002.4 0.4 39
2019-11-12 18:00:00 17.3 15 Norte 26 Norte 0 1002.3 -0.2 31
2019-11-12 17:00:00 19.7 4 Oeste 15 Noroeste 0 1001.9 -1 27
2019-11-12 16:00:00 20.1 8 Oeste 26 Noroeste 0 1002 -2 26
2019-11-12 15:00:00 19.9 12 Norte 24 Norte 0 1002.5 -2.3 26
2019-11-12 14:00:00 19.4 8 Oeste 30 Noroeste 0 1002.9 -2.2 26
2019-11-12 13:00:00 18.8 15 Oeste 26 Oeste 0 1004 -1.4 27
2019-11-12 12:00:00 17.6 8 Noroeste 21 Noroeste 0 1004.8 -0.8 30
2019-11-12 11:00:00 16.5 9 Oeste 22 Oeste 0 1005.1 0 31
2019-11-12 10:00:00 14.4 10 Sudoeste 17 Sudoeste 0 1005.4 0.6 35
2019-11-12 09:00:00 11.4 13 Oeste 33 Noroeste 0 1005.6 0.6 45
2019-11-12 08:00:00 12.9 21 Noroeste 48 Norte 0 1005.1 0.3 38
2019-11-12 07:00:00 13.1 38 Norte 58 Norte 0 1004.8 -0.1 37
2019-11-12 06:00:00 13 40 Noroeste 59 Norte 0 1005 0.1 35
2019-11-12 05:00:00 12.2 27 Noroeste 42 Noroeste 0 1004.8 -0.3 40
2019-11-12 04:00:00 9.9 12 Oeste 22 Noroeste 0 1004.9 -0.9 52
2019-11-12 03:00:00 12 15 Oeste 54 Norte 0 1004.9 -0.6 42
2019-11-12 02:00:00 12.7 34 Noroeste 54 Noroeste 0 1005.1 -1 39
2019-11-12 01:00:00 13.4 33 Norte 63 Norte 0 1005.8 0 38
2019-11-12 00:00:00 13.2 22 Noroeste 48 Norte 0 1005.5 0.3 38
2019-11-11 23:00:00 14.1 34 Norte 65 Noroeste 0 1006.1 1.1 36
2019-11-11 22:00:00 15 37 Norte 55 Norte 0 1005.8 1.2 37
2019-11-11 21:00:00 15.8 27 Norte 54 Norte 0 1005.2 1.3 43
2019-11-11 20:00:00 16.5 31 Norte 50 Norte 0 1005 1.3 45
2019-11-11 19:00:00 16.3 32 Norte 50 Norte 0 1004.6 1 46
2019-11-11 18:00:00 16.9 33 Noroeste 63 Noroeste 0 1003.9 0.7 42
2019-11-11 17:00:00 17.8 22 Noroeste 35 Norte 0 1003.7 0.3 38
2019-11-11 16:00:00 18.4 23 Noroeste 35 Noroeste 0 1003.6 -0.6 34
2019-11-11 15:00:00 18.4 23 Oeste 37 Noroeste 0 1003.2 -2.1 31
2019-11-11 14:00:00 18.7 21 Noroeste 37 Noroeste 0 1003.4 -2.2 28
2019-11-11 13:00:00 18.7 19 Noroeste 28 Noroeste 0 1004.2 -2 29
2019-11-11 12:00:00 17.3 15 Oeste 28 Noroeste 0 1005.3 -0.8 31
2019-11-11 11:00:00 15.6 17 Noroeste 26 Noroeste 0 1005.6 -0.8 36
2019-11-11 10:00:00 13.8 11 Oeste 24 Oeste 0 1006.2 0.1 43
2019-11-11 09:00:00 10.2 17 Oeste 24 Oeste 0 1006.1 -0.7 53
2019-11-11 08:00:00 9 15 Oeste 28 Oeste 0 1006.4 -0.2 55
2019-11-11 07:00:00 8.3 17 Oeste 24 Oeste 0 1006.1 -0.7 56
2019-11-11 06:00:00 6.6 9 Sudoeste 21 Sudoeste 0 1006.8 -0.2 61
2019-11-11 05:00:00 7.4 11 Noroeste 18 Oeste 0 1006.6 -0.1 56
2019-11-11 04:00:00 9.1 17 Noroeste 26 Noroeste 0 1006.8 -0.7 48
2019-11-11 03:00:00 7.8 17 Oeste 30 Noroeste 0 1007 0.1 51
2019-11-11 02:00:00 10.2 20 Noroeste 37 Noroeste 0 1006.7 0.3 41
2019-11-11 01:00:00 9.5 16 Sudoeste 30 Noroeste 0 1007.5 1.5 46
2019-11-11 00:00:00 9.3 13 Noroeste 35 Norte 0 1006.9 1 49
2019-11-10 23:00:00 10.7 5 Oeste 26 Noroeste 0 1006.4 0.5 44
2019-11-10 22:00:00 12.7 24 Norte 45 Noroeste 0 1006 0.7 39
2019-11-10 21:00:00 11 8 Oeste 13 Oeste 0 1005.9 1.4 45
2019-11-10 20:00:00 12.6 9 Oeste 26 Norte 0 1005.9 2.2 38
2019-11-10 19:00:00 14.3 20 Norte 35 Norte 0 1005.3 1.8 33
2019-11-10 18:00:00 14.9 20 Norte 35 Norte 0 1004.5 1.3 33
2019-11-10 17:00:00 16 14 Noroeste 28 Norte 0 1003.7 0.1 31
2019-11-10 16:00:00 15.8 17 Norte 45 Norte 0 1003.5 -0.7 32
2019-11-10 15:00:00 16.7 26 Norte 45 Norte 0 1003.2 -2.4 30
2019-11-10 14:00:00 17.7 8 Norte 26 Norte 0 1003.6 -2.3 26
2019-11-10 13:00:00 16.8 22 Noroeste 32 Norte 0 1004.2 -1.4 29
2019-11-10 12:00:00 15.1 12 Norte 21 Oeste 0 1005.6 -0.1 32
2019-11-10 11:00:00 13.8 16 Noroeste 35 Oeste 0 1005.9 0.5 38
2019-11-10 10:00:00 12.3 18 Oeste 33 Oeste 0 1005.6 0.6 45
2019-11-10 09:00:00 11.2 7 Oeste 24 Noroeste 0 1005.7 0.9 48
2019-11-10 08:00:00 9 13 Noroeste 18 Noroeste 0 1005.4 0.8 58
2019-11-10 07:00:00 10.7 14 Oeste 26 Noroeste 0 1005 -0.1 50
2019-11-10 06:00:00 11.7 3 Norte 17 Oeste 0 1004.8 -0.4 49
2019-11-10 05:00:00 11.9 15 Oeste 35 Noroeste 0 1004.6 0.1 51
2019-11-10 04:00:00 12.4 27 Noroeste 59 Noroeste 0 1005.1 0.2 47
2019-11-10 03:00:00 12.6 24 Noroeste 59 Noroeste 0 1005.2 -0.8 67
2019-11-10 02:00:00 13.1 12 Sur 28 Oeste 0 1004.5 -1.5 68
2019-11-10 01:00:00 12.9 18 Oeste 32 Oeste 0 1004.9 -1.7 65
2019-11-10 00:00:00 13.7 19 Oeste 33 Oeste 0 1006 -1.1 61
2019-11-09 23:00:00 14.1 27 Oeste 42 Oeste 0 1006 -1.5 57
2019-11-09 22:00:00 14.6 21 Oeste 39 Oeste 0 1006.6 -0.9 51
2019-11-09 21:00:00 15.3 25 Oeste 35 Oeste 0 1007.1 0 45
2019-11-09 20:00:00 15.7 25 Oeste 46 Oeste 0 1007.5 0.4 40
2019-11-09 19:00:00 16 32 Oeste 48 Oeste 0 1007.5 0 38
2019-11-09 18:00:00 16.4 28 Oeste 45 Oeste 0 1007.1 -0.9 36
2019-11-09 17:00:00 17.5 24 Oeste 46 Oeste 0 1007.1 -1.5 32
2019-11-09 16:00:00 18 30 Oeste 50 Oeste 0 1007.5 -2.1 30
2019-11-09 15:00:00 19.6 33 Oeste 50 Oeste 0 1008 -2.6 26
2019-11-09 14:00:00 19.6 13 Oeste 37 Sudoeste 0 1008.6 -2.8 29
2019-11-09 13:00:00 18.1 30 Oeste 46 Oeste 0 1009.6 -1.9 32
2019-11-09 12:00:00 18.2 24 Oeste 33 Oeste 0 1010.6 -1 30
2019-11-09 11:00:00 16.2 15 Noroeste 45 Noroeste 0 1011.4 0.2 33
2019-11-09 10:00:00 15.5 26 Noroeste 45 Noroeste 0 1011.5 0.6 35
2019-11-09 09:00:00 14 24 Noroeste 39 Noroeste 0 1011.6 1.2 37
2019-11-09 08:00:00 12.6 9 Oeste 28 Oeste 0 1011.2 1.6 41
2019-11-09 07:00:00 12.4 14 Oeste 35 Oeste 0 1010.9 1.2 40
2019-11-09 06:00:00 12.7 18 Oeste 45 Oeste 0 1010.4 0.6 40
2019-11-09 05:00:00 12.6 26 Oeste 45 Oeste 0 1009.6 0 40
2019-11-09 04:00:00 12.8 21 Oeste 39 Oeste 0 1009.7 0.2 40
2019-11-09 03:00:00 12.3 24 Oeste 35 Oeste 0 1009.8 0.9 41
2019-11-09 02:00:00 13.1 26 Oeste 42 Oeste 0 1009.6 0.8 39
2019-11-09 01:00:00 13.1 23 Oeste 41 Oeste 0 1009.5 0.9 39
2019-11-09 00:00:00 13.2 21 Oeste 42 Oeste 0 1008.9 0.6 37
2019-11-08 23:00:00 13.5 27 Oeste 39 Oeste 0 1008.8 1.1 36
2019-11-08 22:00:00 12.9 17 Oeste 28 Oeste 0 1008.6 1.7 37
2019-11-08 21:00:00 12.9 15 Sudoeste 28 Oeste 0 1008.3 2.2 43
2019-11-08 20:00:00 13.8 24 Oeste 37 Sudoeste 0 1007.7 2.3 39
2019-11-08 19:00:00 14.2 21 Oeste 33 Oeste 0 1006.9 2.4 39
2019-11-08 18:00:00 15.4 24 Oeste 48 Oeste 0 1006.1 1.7 32
2019-11-08 17:00:00 16.7 32 Oeste 55 Oeste 0 1005.4 1.3 29
2019-11-08 16:00:00 17.4 39 Oeste 58 Oeste 0 1004.5 -0.1 28
2019-11-08 15:00:00 17.7 33 Oeste 63 Oeste 0 1004.4 -0.9 28
2019-11-08 14:00:00 16.9 42 Oeste 61 Oeste 0 1004.1 -1.4 31
2019-11-08 13:00:00 15.8 38 Oeste 65 Oeste 0 1004.6 -0.7 32
2019-11-08 12:00:00 13.1 29 Oeste 46 Oeste 0 1005.3 0.4 39
2019-11-08 11:00:00 13 37 Oeste 54 Oeste 0 1005.5 1.4 38
2019-11-08 10:00:00 13.3 32 Oeste 46 Noroeste 0 1005.3 1.6 37
2019-11-08 09:00:00 11.5 30 Oeste 41 Oeste 0 1004.9 1.7 43
2019-11-08 08:00:00 10.4 26 Oeste 39 Oeste 0 1004.1 1.3 45
2019-11-08 07:00:00 9.6 19 Oeste 33 Oeste 0 1003.7 1.4 50
2019-11-08 06:00:00 9.7 15 Oeste 28 Noroeste 0 1003.2 0.7 51
2019-11-08 05:00:00 10.6 21 Oeste 48 Oeste 0 1002.8 0.7 49
2019-11-08 04:00:00 10.8 25 Oeste 46 Oeste 0 1002.3 0.5 52
2019-11-08 03:00:00 11.2 29 Oeste 41 Oeste 0 1002.5 0.4 51
2019-11-08 02:00:00 10.7 17 Oeste 41 Oeste 0 1002.1 0.1 55
2019-11-08 01:00:00 12 28 Oeste 67 Oeste 0 1001.8 -0.1 51
2019-11-08 00:00:00 13.3 44 Oeste 63 Oeste 0 1002.1 0.5 44
2019-11-07 23:00:00 13.7 29 Noroeste 46 Noroeste 0 1002 0.7 36
2019-11-07 22:00:00 13.5 5 Oeste 13 Sur 0 1001.9 1.1 37
2019-11-07 21:00:00 15.3 7 Sudoeste 33 Noroeste 0 1001.6 1.4 32
2019-11-07 20:00:00 16.3 26 Noroeste 42 Noroeste 0 1001.3 1.6 26
2019-11-07 19:00:00 16.8 23 Oeste 35 Oeste 0 1000.8 1.2 28
2019-11-07 18:00:00 18.7 19 Noroeste 41 Oeste 0 1000.2 0.7 30
2019-11-07 17:00:00 21.1 27 Oeste 41 Oeste 0 999.7 -0.4 32
2019-11-07 16:00:00 21.1 22 Oeste 48 Oeste 0 999.6 -1.3 37
2019-11-07 15:00:00 21.6 26 Oeste 48 Noroeste 0 999.5 -2.4 37
2019-11-07 14:00:00 21.5 26 Oeste 54 Noroeste 0 1000.1 -2.1 42
2019-11-07 13:00:00 20.2 35 Oeste 54 Noroeste 0 1000.9 -1.4 50
2019-11-07 12:00:00 19.4 31 Oeste 41 Oeste 0 1001.9 -0.3 54
2019-11-07 11:00:00 18.4 31 Oeste 42 Oeste 0 1002.2 -0.2 56
2019-11-07 10:00:00 17.5 17 Oeste 32 Oeste 0 1002.3 0.2 57
2019-11-07 09:00:00 14.8 11 Sudoeste 17 Sudoeste 0 1002.2 -0.1 61
2019-11-07 08:00:00 13.1 11 Sur 18 Sudoeste 0 1002.4 -0.5 64
2019-11-07 07:00:00 13.3 13 Sudoeste 32 Sudoeste 0 1002.1 -1.1 62
2019-11-07 06:00:00 12.3 18 Oeste 28 Oeste 0 1002.3 -1.7 66
2019-11-07 05:00:00 12.3 12 Oeste 18 Sudoeste 0 1002.9 -1.7 63
2019-11-07 04:00:00 12.1 12 Oeste 21 Sudoeste 0 1003.2 -2.3 63
2019-11-07 03:00:00 11.9 12 Oeste 21 Sudoeste 0 1004 -1.5 63
2019-11-07 02:00:00 12.8 14 Sudoeste 22 Oeste 0 1004.6 -1 59
2019-11-07 01:00:00 12.6 14 Oeste 28 Sudoeste 0 1005.5 0.1 58
2019-11-07 00:00:00 13.5 18 Oeste 28 Oeste 0 1005.5 -0.2 53
2019-11-06 23:00:00 14.8 14 Sudoeste 24 Oeste 0 1005.6 0.1 48
2019-11-06 22:00:00 14.1 18 Noroeste 33 Noroeste 0 1005.4 0.4 50
2019-11-06 21:00:00 14.4 18 Oeste 22 Oeste 0 1005.7 1.5 48
2019-11-06 20:00:00 13.9 8 Oeste 17 Noroeste 0 1005.5 1.5 51
2019-11-06 19:00:00 17.9 6 Nordeste 17 Nordeste 0 1005 1 35
2019-11-06 18:00:00 19.3 9 Nordeste 22 Nordeste 0 1004.2 0.1 31
2019-11-06 17:00:00 21 14 Nordeste 22 Nordeste 0 1004 -0.8 27
2019-11-06 16:00:00 22.4 4 Sudeste 18 Norte 0 1004 -1.4 25
2019-11-06 15:00:00 22.4 3 Este 13 Sudoeste 0 1004.1 -2 25
2019-11-06 14:00:00 21.3 7 Norte 26 Noroeste 0 1004.8 -1.5 26
2019-11-06 13:00:00 20.5 10 Noroeste 24 Noroeste 0 1005.4 -0.9 29
2019-11-06 12:00:00 19.6 14 Oeste 26 Oeste 0 1006.1 -0.1 31
2019-11-06 11:00:00 18.6 15 Oeste 28 Oeste 0 1006.3 0.7 33
2019-11-06 10:00:00 17.3 20 Oeste 28 Oeste 0 1006.3 1.1 38
2019-11-06 09:00:00 15.5 21 Noroeste 33 Noroeste 0 1006.2 1.3 43
2019-11-06 08:00:00 12.2 10 Oeste 18 Noroeste 0 1005.6 0.9 55
2019-11-06 07:00:00 12.4 15 Oeste 30 Oeste 0 1005.2 0.6 54
2019-11-06 06:00:00 12.5 18 Oeste 33 Oeste 0 1004.9 0.3 56
2019-11-06 05:00:00 12.2 14 Sudoeste 26 Sudoeste 0 1004.7 0.1 59
2019-11-06 04:00:00 12.2 7 Oeste 21 Sudoeste 0 1004.6 -0.2 59
2019-11-06 03:00:00 12.7 16 Sudoeste 32 Oeste 0 1004.6 -0.2 59
2019-11-06 02:00:00 12.5 21 Oeste 33 Sudoeste 0 1004.6 -0.1 63
2019-11-06 01:00:00 13.4 23 Oeste 32 Sudoeste 0 1004.8 0.4 59
2019-11-06 00:00:00 12.8 13 Oeste 24 Oeste 0 1004.8 1.1 61